WetterOnline ( https://www.wetteronline.de )

Wetter aktuell Mundhardterhof

Aktuelles Wetter: Weinbiet/Pfalz (557m)

6-stündlich | Neueste Meldungen
Ortszeit Temperatur Wetter
Sa, 28.11. 13:00 2.4° C wolkenlos
Sa, 28.11. 7:00 0.2° C wolkenlos
Sa, 28.11. 1:00 1.7° C wolkenlos
Fr, 27.11. 19:00 3.1° C wolkenlos
Fr, 27.11. 13:00 4.7° C wolkenlos
Fr, 27.11. 7:00 4.5° C leicht bewölkt
Fr, 27.11. 1:00 2.9° C bedeckt
Do, 26.11. 19:00 3.6° C wolkenlos
Ortszeit Temperatur Wetter
Sa, 28.11. 18:30 2.8° C wolkenlos
Sa, 28.11. 18:20 2.8° C wolkenlos
Sa, 28.11. 18:10 2.9° C fast wolkenlos
Sa, 28.11. 18:00 3.0° C leicht bewölkt
Sa, 28.11. 17:50 3.0° C leicht bewölkt
Sa, 28.11. 17:40 3.0° C wolkig
Sa, 28.11. 17:30 2.8° C fast wolkenlos
Sa, 28.11. 17:00 3.1° C wolkenlos
Sa, 28.11. 16:30 3.2° C wolkenlos
Sa, 28.11. 16:00 3.0° C leicht bewölkt
Sa, 28.11. 15:30 2.9° C leicht bewölkt
Ortszeit Relative Feuchte Sichtweite
Sa, 28.11. 13:00 71% 35 km
Sa, 28.11. 7:00 84% 30 km
Sa, 28.11. 1:00 90% 16 km
Fr, 27.11. 19:00 83% 27 km
Fr, 27.11. 13:00 77% 28 km
Fr, 27.11. 7:00 82% 55 km
Fr, 27.11. 1:00 85% 25 km
Do, 26.11. 19:00 78% 35 km
Ortszeit Relative Feuchte Sichtweite
Sa, 28.11. 18:30 84% 40 km
Sa, 28.11. 18:20 84% -
Sa, 28.11. 18:10 83% -
Sa, 28.11. 18:00 84% 35 km
Sa, 28.11. 17:50 84% -
Sa, 28.11. 17:40 84% -
Sa, 28.11. 17:30 84% 30 km
Sa, 28.11. 17:00 82% 35 km
Sa, 28.11. 16:30 80% 40 km
Sa, 28.11. 16:00 79% 40 km
Sa, 28.11. 15:30 77% 45 km
Ortszeit Niederschlagsmenge Niederschlagsart
Sa, 28.11. 13:00 0.0 l/m2 in 6 Std. -
Sa, 28.11. 7:00 0.0 l/m2 in 12 Std. -
Sa, 28.11. 1:00 0.0 l/m2 in 6 Std. -
Fr, 27.11. 19:00 0.0 l/m2 in 12 Std. -
Fr, 27.11. 13:00 0.0 l/m2 in 6 Std. -
Fr, 27.11. 7:00 0.1 l/m2 in 12 Std. Regen
Fr, 27.11. 1:00 0.0 l/m2 in 6 Std. -
Do, 26.11. 19:00 0.0 l/m2 in 12 Std. -
Ortszeit Niederschlagsmenge Niederschlagsart
Sa, 28.11. 18:30 0.0 l/m2 in 1 Std. -
Sa, 28.11. 18:20 keine Meldung -
Sa, 28.11. 18:10 keine Meldung -
Sa, 28.11. 18:00 0.0 l/m2 in 1 Std. -
Sa, 28.11. 17:50 keine Meldung -
Sa, 28.11. 17:40 keine Meldung -
Sa, 28.11. 17:30 0.0 l/m2 in 1 Std. -
Sa, 28.11. 17:00 0.0 l/m2 in 1 Std. -
Sa, 28.11. 16:30 0.0 l/m2 in 1 Std. -
Sa, 28.11. 16:00 0.0 l/m2 in 1 Std. -
Sa, 28.11. 15:30 0.0 l/m2 in 1 Std. -
Ortszeit Stärke Spitze Richtung
km/h Bft. km/h Grad Sektor
Sa, 28.11. 13:00 20 4 26 50° NO
Sa, 28.11. 7:00 14 3 25 90° O
Sa, 28.11. 1:00 19 3 28 70° O
Fr, 27.11. 19:00 19 3 20 110° O
Fr, 27.11. 13:00 13 3 22 160° S
Fr, 27.11. 7:00 11 2 18 240° SW
Fr, 27.11. 1:00 15 3 24 190° S
Do, 26.11. 19:00 24 4 26 140° SO
Ortszeit Stärke Spitze Richtung
km/h Bft. km/h Grad Sektor
Sa, 28.11. 18:30 22 4 29 40° NO
Sa, 28.11. 18:20 22 4 - 40° NO
Sa, 28.11. 18:10 22 4 - 40° NO
Sa, 28.11. 18:00 22 4 29 40° NO
Sa, 28.11. 17:50 22 4 - 40° NO
Sa, 28.11. 17:40 22 4 - 40° NO
Sa, 28.11. 17:30 22 4 29 40° NO
Sa, 28.11. 17:00 22 4 29 50° NO
Sa, 28.11. 16:30 22 4 25 50° NO
Sa, 28.11. 16:00 22 4 28 50° NO
Sa, 28.11. 15:30 24 4 28 40° NO
Ortszeit Untergrenze Bedeckung Gattung
total tief tief mittel hoch
Sa, 28.11. 13:00 - 0/8 0/8 - - -
Sa, 28.11. 7:00 - 0/8 0/8 - - -
Sa, 28.11. 1:00 - 0/8 0/8 - - -
Fr, 27.11. 19:00 - 0/8 0/8 - - -
Fr, 27.11. 13:00 - 0/8 0/8 - - -
Fr, 27.11. 7:00 1020 m 1/8 4/8 - - -
Fr, 27.11. 1:00 1140 m 8/8 8/8 - - -
Do, 26.11. 19:00 - 0/8 0/8 - - -
Ortszeit Bedeckungsgrad in Achtel und Wolkenuntergrenze
Sa, 28.11. 18:30 keine Wolken
Sa, 28.11. 18:20 keine Wolken
Sa, 28.11. 18:10 1(9000m)
Sa, 28.11. 18:00 6(9000m)
Sa, 28.11. 17:50 6(9000m)
Sa, 28.11. 17:40 7(9000m)
Sa, 28.11. 17:30 2(9000m)
Sa, 28.11. 17:00 keine Wolken
Sa, 28.11. 16:30 keine Wolken
Sa, 28.11. 16:00 4(9000m)
Sa, 28.11. 15:30 6(9000m)
Ortszeit Luftdruck NN (hPa) Tendenz (hPa in 3 Std.)
Sa, 28.11. 13:00 1021 - 0,5
Sa, 28.11. 7:00 1021 + 0,1
Sa, 28.11. 1:00 1021 - 0,3
Fr, 27.11. 19:00 1021 0,0
Fr, 27.11. 13:00 1021 - 0,4
Fr, 27.11. 7:00 1021 - 0,3
Fr, 27.11. 1:00 1022 - 0,3
Do, 26.11. 19:00 1022 + 0,2
Ortszeit Luftdruck NN (hPa) Tendenz (hPa in 3 Std.)
Sa, 28.11. 18:30 1020 + 0,3
Sa, 28.11. 18:20 1020 keine Meldung
Sa, 28.11. 18:10 1020 keine Meldung
Sa, 28.11. 18:00 1020 + 0,1
Sa, 28.11. 17:50 1020 keine Meldung
Sa, 28.11. 17:40 1020 keine Meldung
Sa, 28.11. 17:30 1020 + 0,1
Sa, 28.11. 17:00 1020 - 0,1
Sa, 28.11. 16:30 1020 - 0,1
Sa, 28.11. 16:00 1020 - 0,2
Sa, 28.11. 15:30 1020 - 0,5
Ortszeit Schneehöhe (cm)
Sa, 28.11. 13:00 0
Sa, 28.11. 7:00 0
Sa, 28.11. 1:00 0
Fr, 27.11. 19:00 0
Fr, 27.11. 13:00 0
Fr, 27.11. 7:00 0
Fr, 27.11. 1:00 0
Do, 26.11. 19:00 0
Ortszeit Schneehöhe (cm)
Sa, 28.11. 18:30 0
Sa, 28.11. 18:20 0
Sa, 28.11. 18:10 0
Sa, 28.11. 18:00 0
Sa, 28.11. 17:50 0
Sa, 28.11. 17:40 0
Sa, 28.11. 17:30 0
Sa, 28.11. 17:00 0
Sa, 28.11. 16:30 0
Sa, 28.11. 16:00 0
Sa, 28.11. 15:30 0
Link zu dieser Seite / Seite empfehlen

Das Wetter in ...